Time;durP1;ratioP1;P1;durP2;ratioP2;P2;SDS_P1;SDS_P2;PMS_P1;PMS_P2;Temp;Humidity;BMP_temperature;BMP_pressure;BME280_temperature;BME280_humidity;BME280_pressure;Samples;Min_cycle;Max_cycle;Signal;HPM_P1;HPM_P2
2022/11/10 00:00:02;;;;;;;3.50;3.20;;;;;;;13.14;99.45;95929.25;5031505;28;20225;-83
2022/11/10 00:02:29;;;;;;;3.90;3.53;;;;;;;13.17;99.45;95926.34;5031308;28;20221;-85
2022/11/10 00:04:55;;;;;;;3.90;3.43;;;;;;;13.09;99.68;95934.19;5031052;28;20221;-84
2022/11/10 00:07:24;;;;;;;3.40;3.10;;;;;;;13.14;98.99;95929.25;5030696;28;20205;-84
2022/11/10 00:09:51;;;;;;;3.50;3.20;;;;;;;13.19;98.56;95934.72;5030905;28;20222;-84
2022/11/10 00:12:18;;;;;;;3.50;3.20;;;;;;;13.20;98.42;95925.97;5031322;28;20198;-83
2022/11/10 00:17:26;;;;;;;3.40;3.10;;;;;;;13.32;97.53;95942.59;5007984;28;20252;-84
2022/11/10 00:19:52;;;;;;;3.10;2.90;;;;;;;13.34;97.25;95943.22;5030351;28;20214;-84
2022/11/10 00:22:19;;;;;;;3.20;2.93;;;;;;;13.34;97.15;95938.06;5031129;28;20198;-85
2022/11/10 00:24:45;;;;;;;3.30;2.93;;;;;;;13.28;97.57;95940.56;5030532;28;20210;-84
2022/11/10 00:27:13;;;;;;;3.57;3.00;;;;;;;13.31;97.63;95938.41;5031429;28;20226;-84
2022/11/10 00:29:40;;;;;;;3.50;3.20;;;;;;;13.32;97.58;95945.19;5030490;28;20225;-84
2022/11/10 00:32:08;;;;;;;3.50;3.20;;;;;;;13.30;98.05;95951.53;5029950;28;20187;-84
2022/11/10 00:34:35;;;;;;;3.83;2.80;;;;;;;13.34;97.16;95948.41;5030550;28;20206;-85
2022/11/10 00:37:02;;;;;;;3.50;3.20;;;;;;;13.34;97.36;95948.41;5030396;28;20197;-85
2022/11/10 00:39:28;;;;;;;2.80;2.60;;;;;;;13.35;97.42;95959.53;5030459;28;20210;-86
2022/11/10 00:41:55;;;;;;;3.20;2.90;;;;;;;13.34;97.55;95953.56;5031330;28;20204;-85
2022/11/10 00:44:21;;;;;;;3.43;3.13;;;;;;;13.38;97.17;95957.41;5027006;28;20218;-85
2022/11/10 00:46:48;;;;;;;3.00;2.80;;;;;;;13.38;97.43;95967.75;5029921;28;20198;-84
2022/11/10 00:49:16;;;;;;;2.80;2.60;;;;;;;13.37;97.47;95971.31;5029686;28;20687;-84
2022/11/10 00:51:42;;;;;;;3.20;2.90;;;;;;;13.35;98.14;95983.63;5030287;28;20214;-84
2022/11/10 00:54:11;;;;;;;3.00;2.70;;;;;;;13.35;97.66;95982.81;5029040;28;20198;-83
2022/11/10 00:56:37;;;;;;;3.03;2.80;;;;;;;13.33;98.50;95982.19;5029984;28;20245;-84
2022/11/10 00:59:04;;;;;;;2.80;2.60;;;;;;;13.38;97.65;95987.63;5030062;28;20578;-85
2022/11/10 01:01:30;;;;;;;3.53;2.77;;;;;;;13.38;97.28;95985.84;5030081;28;20218;-84
2022/11/10 01:03:57;;;;;;;2.57;2.37;;;;;;;13.39;96.67;95995.22;5029376;28;20224;-84
2022/11/10 01:06:24;;;;;;;3.13;2.83;;;;;;;13.42;96.82;95987.09;5029464;28;20201;-84
2022/11/10 01:08:51;;;;;;;2.50;2.30;;;;;;;13.39;97.26;95999.56;5029817;28;20205;-84
2022/11/10 01:11:20;;;;;;;2.60;2.40;;;;;;;13.40;96.96;95996.81;5029669;28;20222;-83
2022/11/10 01:13:49;;;;;;;2.47;2.27;;;;;;;13.39;97.18;95995.22;5029216;28;20213;-84
2022/11/10 01:16:18;;;;;;;2.60;2.40;;;;;;;13.37;97.07;95997.19;5029248;28;20201;-84
2022/11/10 01:18:48;;;;;;;2.50;2.30;;;;;;;13.38;97.24;95995.38;5028848;28;20205;-84
2022/11/10 01:21:15;;;;;;;2.40;2.20;;;;;;;13.39;97.32;95997.78;5025685;28;20745;-85
2022/11/10 01:23:42;;;;;;;2.50;2.30;;;;;;;13.38;97.59;96000.56;5029448;28;20217;-83
2022/11/10 01:26:09;;;;;;;1.90;1.80;;;;;;;13.36;97.70;96002.53;5029093;28;20386;-85
2022/11/10 01:28:37;;;;;;;3.03;2.00;;;;;;;13.37;97.39;96002.34;5029697;28;20209;-85
2022/11/10 01:31:05;;;;;;;2.10;1.90;;;;;;;13.36;97.23;96003.31;5028398;28;20214;-84
2022/11/10 01:33:33;;;;;;;1.97;1.87;;;;;;;13.38;97.32;96003.94;5029749;28;20209;-87
2022/11/10 01:35:59;;;;;;;2.30;2.10;;;;;;;13.38;97.94;96006.53;5029640;28;20198;-86
2022/11/10 01:38:27;;;;;;;2.40;2.20;;;;;;;13.33;97.77;96005.47;5029859;28;20734;-87
2022/11/10 01:40:55;;;;;;;2.10;2.00;;;;;;;13.33;97.90;96006.28;5028494;28;20218;-87
2022/11/10 01:43:21;;;;;;;2.70;2.10;;;;;;;13.36;97.06;96008.50;5029028;28;20190;-86
2022/11/10 01:45:51;;;;;;;1.97;1.83;;;;;;;13.32;97.26;96009.84;5028843;28;20203;-86
2022/11/10 01:48:23;;;;;;;2.27;2.00;;;;;;;13.32;97.73;96009.84;5029045;28;20670;-87
2022/11/10 01:50:50;;;;;;;1.70;1.60;;;;;;;13.34;97.43;96015.63;5028694;28;20222;-87
2022/11/10 01:53:20;;;;;;;1.70;1.60;;;;;;;13.36;97.66;96012.88;5028868;28;20213;-87
2022/11/10 01:55:48;;;;;;;1.73;1.63;;;;;;;13.39;96.62;96010.72;5028287;28;20201;-87
2022/11/10 01:58:20;;;;;;;1.70;1.60;;;;;;;13.39;97.05;96023.66;5022466;28;20198;-89
2022/11/10 02:00:46;;;;;;;1.50;1.40;;;;;;;13.42;96.41;96017.31;5028912;28;20305;-87
2022/11/10 02:03:18;;;;;;;1.40;1.30;;;;;;;13.39;96.44;96020.28;5028857;28;20208;-87
2022/11/10 02:05:44;;;;;;;1.60;1.50;;;;;;;13.36;96.49;96024.03;5028861;28;20218;-87
2022/11/10 02:08:15;;;;;;;1.20;1.10;;;;;;;13.35;96.94;96022.41;5028503;28;20191;-88
2022/11/10 02:10:41;;;;;;;1.27;1.13;;;;;;;13.35;97.17;96022.41;5029263;28;20225;-87
2022/11/10 02:13:08;;;;;;;0.90;0.90;;;;;;;13.30;97.75;96021.34;5028440;28;20202;-86
2022/11/10 02:15:36;;;;;;;1.57;1.13;;;;;;;13.29;97.44;96022.34;5029282;28;20226;-88
2022/11/10 02:18:02;;;;;;;1.00;1.00;;;;;;;13.24;98.17;96030.66;5028635;28;20194;-89
2022/11/10 02:20:29;;;;;;;1.10;1.00;;;;;;;13.19;98.55;96027.00;5028870;28;20731;-87
2022/11/10 02:22:57;;;;;;;2.97;1.00;;;;;;;13.21;98.76;96025.03;5029152;28;20205;-87
2022/11/10 02:25:27;;;;;;;1.20;1.10;;;;;;;13.22;98.60;96024.88;5029380;28;20218;-86
2022/11/10 02:27:54;;;;;;;1.10;1.00;;;;;;;13.21;98.88;96022.47;5028187;28;20206;-86
2022/11/10 02:30:20;;;;;;;1.60;1.00;;;;;;;13.18;99.19;96021.03;5029038;28;20221;-87
2022/11/10 02:32:47;;;;;;;1.07;0.80;;;;;;;13.16;99.18;96022.19;5028912;28;20233;-87
2022/11/10 02:35:13;;;;;;;0.80;0.80;;;;;;;13.17;99.14;96024.59;5027827;28;20199;-87
2022/11/10 02:37:39;;;;;;;0.80;0.80;;;;;;;13.20;99.01;96023.44;5028576;28;20198;-87
2022/11/10 02:40:09;;;;;;;1.00;1.00;;;;;;;13.18;99.66;96030.56;5029195;28;20214;-87
2022/11/10 02:42:35;;;;;;;0.80;0.80;;;;;;;13.17;99.00;96032.34;5029746;28;20237;-86
2022/11/10 02:45:02;;;;;;;1.23;0.93;;;;;;;13.16;99.42;96035.91;5028813;28;20218;-87
2022/11/10 02:47:28;;;;;;;1.03;0.93;;;;;;;13.16;99.40;96041.09;5029089;28;20205;-87
2022/11/10 02:49:55;;;;;;;0.93;0.90;;;;;;;13.19;99.39;96048.50;5028956;28;20223;-86
2022/11/10 02:52:21;;;;;;;1.30;0.90;;;;;;;13.16;100.00;96077.28;5029198;28;20202;-87
2022/11/10 02:54:47;;;;;;;1.27;1.10;;;;;;;13.00;100.00;96078.25;5027985;28;20205;-86
2022/11/10 02:57:15;;;;;;;1.60;1.20;;;;;;;12.94;100.00;96080.75;5032279;28;20195;-86
2022/11/10 02:59:42;;;;;;;4.47;1.63;;;;;;;12.82;99.53;96085.56;5032332;28;20201;-86
2022/11/10 03:02:08;;;;;;;1.90;1.30;;;;;;;12.79;99.36;96080.75;5032625;28;20202;-86
2022/11/10 03:04:35;;;;;;;1.50;1.20;;;;;;;12.72;99.54;96091.00;5032858;28;20221;-88
2022/11/10 03:07:01;;;;;;;1.47;1.37;;;;;;;12.54;100.00;96108.59;5032640;28;20194;-86
2022/11/10 03:09:28;;;;;;;2.77;1.50;;;;;;;12.51;100.00;96108.94;5032611;28;20218;-89
2022/11/10 03:11:54;;;;;;;2.50;1.50;;;;;;;12.44;100.00;96110.66;5032549;28;20205;-88
2022/11/10 03:14:22;;;;;;;1.73;1.57;;;;;;;12.36;100.00;96110.69;5030919;28;20212;-87
2022/11/10 03:16:49;;;;;;;1.30;1.17;;;;;;;12.36;100.00;96116.66;5032526;28;20198;-86
2022/11/10 03:19:15;;;;;;;3.43;1.40;;;;;;;12.39;100.00;96128.44;5032400;28;20661;-87
2022/11/10 03:21:42;;;;;;;2.87;1.20;;;;;;;12.47;100.00;96132.75;5031775;28;20222;-86
2022/11/10 03:24:08;;;;;;;3.67;1.50;;;;;;;12.40;100.00;96135.22;5032218;28;20701;-87
2022/11/10 03:26:34;;;;;;;3.20;1.40;;;;;;;12.36;100.00;96132.16;5032267;28;20202;-87
2022/11/10 03:29:01;;;;;;;1.47;1.23;;;;;;;12.31;100.00;96146.59;5032039;28;20202;-87
2022/11/10 03:31:29;;;;;;;1.73;1.50;;;;;;;12.37;100.00;96140.72;5031320;28;20225;-86
2022/11/10 03:33:55;;;;;;;3.50;1.50;;;;;;;12.37;100.00;96153.63;5026652;28;20553;-86
2022/11/10 03:36:22;;;;;;;1.47;1.20;;;;;;;12.38;100.00;96152.66;5032305;28;20198;-86
2022/11/10 03:38:48;;;;;;;3.40;1.57;;;;;;;12.44;100.00;96160.53;5031613;28;20206;-86
2022/11/10 03:41:15;;;;;;;1.73;1.13;;;;;;;12.48;100.00;96157.59;5031749;28;20222;-87
2022/11/10 03:43:41;;;;;;;2.33;1.33;;;;;;;12.53;100.00;96150.09;5031896;28;20692;-87
2022/11/10 03:46:08;;;;;;;1.60;1.30;;;;;;;12.58;100.00;96160.72;5032523;28;20613;-87
2022/11/10 03:48:36;;;;;;;2.07;1.40;;;;;;;12.61;100.00;96160.38;5032308;28;20209;-86
2022/11/10 03:51:02;;;;;;;3.07;1.20;;;;;;;12.60;99.95;96156.19;5031512;28;20241;-88
2022/11/10 03:53:29;;;;;;;2.13;1.60;;;;;;;12.65;99.55;96166.81;5031870;28;20233;-86
2022/11/10 03:55:55;;;;;;;1.77;1.30;;;;;;;12.69;98.67;96171.47;5030970;28;20194;-87
2022/11/10 03:58:21;;;;;;;1.80;1.17;;;;;;;12.73;98.00;96171.88;5025334;28;20203;-86
2022/11/10 04:00:48;;;;;;;1.87;1.43;;;;;;;12.69;98.45;96176.63;5031620;28;20248;-86
2022/11/10 04:03:14;;;;;;;1.53;1.37;;;;;;;12.68;98.13;96180.19;5030731;28;20194;-87
2022/11/10 04:08:59;;;;;;;1.70;1.47;;;;;;;12.75;97.58;96178.50;4966432;28;20235;-87
2022/11/10 04:16:54;;;;;;;1.50;1.20;;;;;;;12.76;96.52;96184.47;5031092;28;20244;-86
2022/11/10 04:19:21;;;;;;;2.83;1.20;;;;;;;12.77;96.47;96180.91;5030861;28;20198;-87
2022/11/10 04:21:49;;;;;;;3.00;1.40;;;;;;;12.78;95.73;96177.34;5031080;28;20213;-88
2022/11/10 04:24:15;;;;;;;2.00;1.20;;;;;;;12.79;95.65;96184.13;5030653;28;20198;-88
2022/11/10 04:26:42;;;;;;;2.87;1.40;;;;;;;12.79;95.26;96187.50;5030896;28;20205;-86
2022/11/10 04:29:10;;;;;;;1.83;1.20;;;;;;;12.81;95.05;96187.34;5025436;28;20576;-86
2022/11/10 04:31:39;;;;;;;2.40;1.40;;;;;;;12.81;95.23;96195.09;5031677;28;20222;-86
2022/11/10 04:34:06;;;;;;;2.07;1.30;;;;;;;12.79;95.47;96213.34;5031415;28;20578;-86
2022/11/10 04:36:34;;;;;;;1.90;1.30;;;;;;;12.81;95.04;96210.59;5031238;28;20201;-87
2022/11/10 04:39:03;;;;;;;2.53;1.47;;;;;;;12.84;95.14;96227.53;5016697;28;20194;-87
2022/11/10 04:41:30;;;;;;;1.60;1.47;;;;;;;12.81;95.45;96231.25;5021640;28;20840;-86
2022/11/10 04:43:57;;;;;;;1.60;1.33;;;;;;;12.79;95.20;96234.03;5032452;28;20203;-88
2022/11/10 04:46:26;;;;;;;2.23;1.47;;;;;;;12.75;96.11;96240.50;5031026;28;20465;-88
2022/11/10 04:48:54;;;;;;;2.17;1.60;;;;;;;12.72;95.61;96243.44;5029969;28;20194;-86
2022/11/10 04:51:23;;;;;;;2.70;1.60;;;;;;;12.70;95.90;96247.19;5031111;28;20221;-86
2022/11/10 04:53:49;;;;;;;2.60;1.57;;;;;;;12.69;95.53;96243.81;5027719;28;20210;-86
2022/11/10 04:56:19;;;;;;;3.17;1.70;;;;;;;12.69;95.54;96237.84;5031640;28;20193;-88
2022/11/10 04:58:46;;;;;;;1.73;1.20;;;;;;;12.64;95.50;96240.13;5031433;28;20206;-87
2022/11/10 05:01:14;;;;;;;2.50;1.63;;;;;;;12.62;95.72;96250.63;5031178;28;20213;-87
2022/11/10 05:03:41;;;;;;;3.17;1.70;;;;;;;12.64;95.77;96245.28;5031320;28;20201;-88
2022/11/10 05:06:08;;;;;;;1.97;1.40;;;;;;;12.63;95.80;96248.84;5030838;28;20748;-87
2022/11/10 05:08:35;;;;;;;4.27;1.90;;;;;;;12.65;95.63;96246.91;5031410;28;20206;-87
2022/11/10 05:11:02;;;;;;;2.17;1.40;;;;;;;12.68;95.06;96249.13;5031136;28;20222;-86
2022/11/10 05:13:29;;;;;;;4.33;1.60;;;;;;;12.68;94.59;96249.94;5031484;28;20293;-86
2022/11/10 05:15:56;;;;;;;2.10;1.60;;;;;;;12.70;94.82;96253.13;5030608;28;20198;-87
2022/11/10 05:18:25;;;;;;;1.63;1.53;;;;;;;12.67;95.10;96268.19;5030752;28;20199;-87
2022/11/10 05:20:52;;;;;;;2.03;1.60;;;;;;;12.66;95.25;96264.00;5031638;28;20214;-86
2022/11/10 05:26:03;;;;;;;1.83;1.63;;;;;;;12.56;95.89;96281.50;5025249;28;20217;-86
2022/11/10 05:28:30;;;;;;;2.87;1.60;;;;;;;12.60;95.38;96275.81;5014447;28;20199;-88
2022/11/10 05:30:57;;;;;;;1.83;1.73;;;;;;;12.62;95.43;96280.81;5033397;28;20222;-87
2022/11/10 05:33:23;;;;;;;4.57;1.63;;;;;;;12.61;95.55;96285.19;5022522;28;20207;-88
2022/11/10 05:35:50;;;;;;;2.20;1.70;;;;;;;12.62;95.23;96288.56;5013012;28;20199;-86
2022/11/10 05:38:17;;;;;;;2.70;1.80;;;;;;;12.61;95.61;96286.97;5012991;28;20209;-87
2022/11/10 05:40:44;;;;;;;4.77;1.80;;;;;;;12.61;95.23;96300.69;5029886;28;20221;-87
2022/11/10 05:43:11;;;;;;;2.27;1.60;;;;;;;12.59;95.26;96300.06;5030628;28;20668;-86
2022/11/10 05:45:39;;;;;;;2.80;1.70;;;;;;;12.54;95.10;96306.69;5030277;28;20222;-86
2022/11/10 05:48:05;;;;;;;3.37;1.60;;;;;;;12.54;95.24;96312.66;5029412;28;20198;-86
2022/11/10 05:50:32;;;;;;;4.20;1.97;;;;;;;12.51;95.45;96312.22;5016184;28;20597;-83
2022/11/10 05:52:58;;;;;;;3.20;1.70;;;;;;;12.49;95.82;96311.59;5015765;28;20218;-84
2022/11/10 05:55:27;;;;;;;3.13;1.87;;;;;;;12.48;95.69;96326.28;5023474;28;20202;-84
2022/11/10 05:57:55;;;;;;;1.93;1.60;;;;;;;12.52;95.74;96332.69;5011123;28;20814;-84
2022/11/10 06:00:25;;;;;;;1.80;1.70;;;;;;;12.50;95.36;96334.66;5012670;28;20574;-83
2022/11/10 06:03:01;;;;;;;2.57;1.50;;;;;;;12.51;94.87;96338.84;5024868;28;20214;-85
2022/11/10 06:05:28;;;;;;;2.40;1.33;;;;;;;12.52;95.71;96344.81;5031277;28;20715;-84
2022/11/10 06:07:55;;;;;;;3.97;1.80;;;;;;;12.44;95.75;96341.31;5030923;28;20210;-84
2022/11/10 06:10:21;;;;;;;2.70;1.60;;;;;;;12.38;97.05;96346.34;5029865;28;20214;-84
2022/11/10 06:12:48;;;;;;;2.83;1.73;;;;;;;12.41;96.11;96351.97;5027514;28;20206;-84
2022/11/10 06:15:15;;;;;;;2.43;1.90;;;;;;;12.44;96.57;96349.06;5029254;28;20214;-83
2022/11/10 06:17:42;;;;;;;2.70;1.87;;;;;;;12.47;96.52;96358.25;5029445;28;20275;-84
2022/11/10 06:20:11;;;;;;;1.63;1.53;;;;;;;12.50;95.83;96368.25;5029002;28;20300;-83
2022/11/10 06:22:38;;;;;;;2.47;1.70;;;;;;;12.50;96.27;96386.34;5029252;28;20229;-84
2022/11/10 06:25:05;;;;;;;3.37;1.80;;;;;;;12.43;96.85;96398.31;5028805;28;20580;-84
2022/11/10 06:27:31;;;;;;;2.07;1.60;;;;;;;12.40;96.91;96403.78;5023176;28;20198;-85
2022/11/10 06:29:58;;;;;;;7.63;2.80;;;;;;;12.43;99.45;96404.28;5029379;28;20225;-84
2022/11/10 06:32:24;;;;;;;3.83;2.47;;;;;;;12.50;98.27;96403.59;5032891;28;20198;-84
2022/11/10 06:34:51;;;;;;;5.13;2.17;;;;;;;12.49;97.33;96415.72;5034748;28;20195;-84
2022/11/10 06:37:19;;;;;;;3.00;2.20;;;;;;;12.49;97.39;96417.50;5032664;28;20200;-84
2022/11/10 06:39:46;;;;;;;3.50;2.27;;;;;;;12.42;96.34;96419.94;5029070;28;20202;-84
2022/11/10 06:42:14;;;;;;;8.70;6.97;;;;;;;12.41;96.40;96413.97;5034079;28;20917;-84
2022/11/10 06:44:40;;;;;;;5.53;3.20;;;;;;;12.43;96.44;96414.59;5034218;28;20190;-85
2022/11/10 06:47:07;;;;;;;3.63;1.93;;;;;;;12.45;96.11;96422.19;5027660;28;20217;-84
2022/11/10 06:49:33;;;;;;;2.87;1.70;;;;;;;12.49;96.06;96430.41;5028974;28;20218;-85
2022/11/10 06:52:00;;;;;;;2.17;1.83;;;;;;;12.52;95.57;96433.44;5030121;28;20657;-85
2022/11/10 06:54:27;;;;;;;2.23;2.00;;;;;;;12.51;95.48;96437.00;5033567;28;20685;-83
2022/11/10 06:56:54;;;;;;;2.43;1.93;;;;;;;12.51;95.26;96439.56;5034158;28;20194;-84
2022/11/10 06:59:20;;;;;;;3.30;2.20;;;;;;;12.47;95.54;96443.50;5032419;28;20198;-85
2022/11/10 07:01:48;;;;;;;4.73;2.80;;;;;;;12.47;95.60;96453.00;5033958;28;20213;-84
2022/11/10 07:04:14;;;;;;;2.83;2.17;;;;;;;12.44;96.10;96461.91;5033275;28;20213;-85
2022/11/10 07:06:41;;;;;;;3.77;2.63;;;;;;;12.45;95.77;96464.31;5033142;28;20214;-84
2022/11/10 07:09:07;;;;;;;4.63;2.60;;;;;;;12.45;95.94;96466.09;5025316;28;20191;-84
2022/11/10 07:11:35;;;;;;;4.07;2.63;;;;;;;12.45;95.90;96479.00;5032866;28;20214;-84
2022/11/10 07:14:01;;;;;;;4.33;2.20;;;;;;;12.43;95.69;96486.91;5031771;28;20206;-83
2022/11/10 07:16:28;;;;;;;3.93;2.30;;;;;;;12.45;95.70;96482.41;5032549;28;20198;-84
2022/11/10 07:18:54;;;;;;;3.60;2.60;;;;;;;12.43;95.43;96481.75;5025382;28;20201;-84
2022/11/10 07:21:21;;;;;;;3.93;2.73;;;;;;;12.47;95.25;96484.81;5013623;28;20229;-84
2022/11/10 07:23:48;;;;;;;4.00;2.83;;;;;;;12.51;94.76;96501.56;5030017;28;20221;-84
2022/11/10 07:26:15;;;;;;;3.77;2.37;;;;;;;12.61;94.63;96507.38;5032032;28;20230;-83
2022/11/10 07:28:42;;;;;;;2.47;2.27;;;;;;;12.74;94.05;96507.66;5031861;28;20190;-84
2022/11/10 07:31:09;;;;;;;4.93;2.40;;;;;;;12.88;93.62;96518.28;5026832;28;20621;-83
2022/11/10 07:33:35;;;;;;;9.87;6.83;;;;;;;12.94;93.25;96522.75;5036257;28;20197;-85
2022/11/10 07:36:03;;;;;;;5.00;4.50;;;;;;;12.98;93.33;96524.03;5035077;28;20201;-83
2022/11/10 07:38:30;;;;;;;4.40;3.00;;;;;;;13.00;92.76;96512.56;5032396;28;20198;-84
2022/11/10 07:40:56;;;;;;;2.87;2.67;;;;;;;12.90;92.64;96524.88;5032200;28;20218;-83
2022/11/10 07:43:25;;;;;;;3.93;2.93;;;;;;;12.85;93.53;96516.03;5035259;28;20329;-84
2022/11/10 07:45:53;;;;;;;3.27;2.80;;;;;;;12.82;93.57;96529.28;5033988;28;20233;-84
2022/11/10 07:48:21;;;;;;;3.17;2.80;;;;;;;12.80;93.82;96532.81;5022624;28;20210;-85
2022/11/10 07:50:53;;;;;;;3.70;2.80;;;;;;;12.86;94.25;96533.94;5015681;28;20218;-84
2022/11/10 07:53:20;;;;;;;3.93;2.97;;;;;;;12.96;94.05;96538.91;5014955;28;20221;-84
2022/11/10 07:55:47;;;;;;;3.40;2.60;;;;;;;12.97;93.67;96537.94;5017870;28;20201;-84
2022/11/10 07:58:16;;;;;;;3.93;2.67;;;;;;;12.95;93.61;96537.28;5032942;28;20205;-84
2022/11/10 08:00:42;;;;;;;4.33;2.93;;;;;;;13.00;93.44;96540.19;5034465;28;20261;-85
2022/11/10 08:03:12;;;;;;;3.43;2.73;;;;;;;13.07;93.49;96539.38;5034773;28;20208;-84
2022/11/10 08:05:40;;;;;;;3.77;2.80;;;;;;;13.12;93.25;96541.41;5032444;28;20230;-84
2022/11/10 08:08:06;;;;;;;5.00;2.80;;;;;;;13.11;92.33;96543.19;5031977;28;20195;-85
2022/11/10 08:10:34;;;;;;;5.00;2.80;;;;;;;13.45;91.24;96547.28;5034700;28;20214;-83
2022/11/10 08:13:03;;;;;;;4.27;2.60;;;;;;;13.74;90.32;96541.44;5033684;28;20206;-83
2022/11/10 08:15:31;;;;;;;3.57;2.60;;;;;;;13.73;89.60;96545.81;5032849;28;20199;-84
2022/11/10 08:17:59;;;;;;;4.03;2.73;;;;;;;13.59;89.50;96550.91;5034981;28;20194;-84
2022/11/10 08:20:30;;;;;;;3.87;2.60;;;;;;;13.82;88.94;96556.91;5034511;28;20272;-83
2022/11/10 08:22:58;;;;;;;3.43;2.40;;;;;;;14.06;88.02;96551.53;5028727;28;20203;-84
2022/11/10 08:25:25;;;;;;;3.90;2.73;;;;;;;14.30;87.22;96557.50;5013965;28;20702;-86
2022/11/10 08:27:56;;;;;;;5.70;2.60;;;;;;;14.53;86.01;96568.66;5013665;28;20203;-83
2022/11/10 08:30:23;;;;;;;4.57;2.60;;;;;;;14.56;84.01;96564.91;5013065;28;20231;-85
2022/11/10 08:32:49;;;;;;;3.47;2.35;;;;;;;14.67;84.22;96565.25;5012855;28;20222;-83
2022/11/10 08:35:16;;;;;;;3.40;2.08;;;;;;;14.75;83.38;96562.59;5016186;28;20202;-84
2022/11/10 08:37:44;;;;;;;3.58;2.25;;;;;;;14.90;82.63;96565.19;5033737;28;20209;-85
2022/11/10 08:40:11;;;;;;;5.22;4.10;;;;;;;15.10;82.12;96566.25;5033716;28;20589;-84
2022/11/10 08:42:38;;;;;;;4.68;3.92;;;;;;;15.21;80.80;96567.56;5022744;28;20206;-84
2022/11/10 08:45:05;;;;;;;2.92;2.38;;;;;;;15.19;79.14;96565.19;5013964;28;20572;-83
2022/11/10 08:47:32;;;;;;;9.05;3.75;;;;;;;15.30;79.22;96568.28;5012915;28;20610;-84
2022/11/10 08:49:58;;;;;;;5.15;2.17;;;;;;;15.19;78.69;96572.97;5013348;28;20229;-84
2022/11/10 08:52:24;;;;;;;2.13;1.83;;;;;;;15.07;78.33;96578.78;5015331;28;20218;-84
2022/11/10 08:54:52;;;;;;;3.30;1.88;;;;;;;14.92;79.16;96589.16;5011845;28;20613;-84
2022/11/10 08:57:19;;;;;;;2.63;2.03;;;;;;;14.83;80.31;96593.63;5013200;28;20203;-84
2022/11/10 08:59:45;;;;;;;4.05;1.98;;;;;;;14.87;79.78;96607.03;5012590;28;20677;-84
2022/11/10 09:02:12;;;;;;;3.63;2.30;;;;;;;15.03;79.04;96604.25;5021372;28;20202;-84
2022/11/10 09:04:38;;;;;;;2.25;1.83;;;;;;;14.82;78.71;96607.56;5032857;28;20198;-83
2022/11/10 09:07:04;;;;;;;5.53;2.15;;;;;;;14.62;78.91;96614.25;5033582;28;20218;-84
2022/11/10 09:09:31;;;;;;;2.10;1.90;;;;;;;14.46;79.17;96612.59;5032087;28;20217;-86
2022/11/10 09:11:59;;;;;;;3.55;2.08;;;;;;;14.29;80.08;96620.66;5024359;28;20229;-86
2022/11/10 09:14:25;;;;;;;2.38;2.00;;;;;;;14.29;80.33;96628.44;5013026;28;20207;-84
2022/11/10 09:16:51;;;;;;;2.17;1.92;;;;;;;14.45;80.48;96623.13;5013283;28;20199;-85
2022/11/10 09:19:18;;;;;;;5.25;2.30;;;;;;;14.62;80.46;96636.78;5014856;28;20207;-84
2022/11/10 09:21:44;;;;;;;3.47;1.92;;;;;;;15.00;79.00;96635.78;5017347;28;20227;-82
2022/11/10 09:24:11;;;;;;;2.50;2.28;;;;;;;15.32;77.04;96644.16;5015718;28;20209;-84
2022/11/10 09:26:38;;;;;;;4.25;2.83;;;;;;;15.45;74.87;96652.94;5013586;28;20234;-84
2022/11/10 09:29:05;;;;;;;2.28;1.40;;;;;;;15.63;75.07;96651.78;5012624;28;20202;-84
2022/11/10 09:31:32;;;;;;;4.55;1.70;;;;;;;15.38;74.63;96657.25;5012475;28;20233;-84
2022/11/10 09:33:59;;;;;;;2.90;1.63;;;;;;;15.12;73.53;96649.91;5015792;28;20437;-85
2022/11/10 09:36:25;;;;;;;3.78;1.60;;;;;;;15.02;73.31;96648.53;5026023;28;20198;-85
2022/11/10 09:38:51;;;;;;;2.60;1.77;;;;;;;15.33;73.36;96656.16;5033545;28;20233;-85
2022/11/10 09:41:18;;;;;;;5.00;1.75;;;;;;;15.62;72.64;96655.34;5035973;28;20222;-84
2022/11/10 09:43:53;;;;;;;2.60;1.50;;;;;;;15.76;71.65;96657.94;5032285;28;20206;-84
2022/11/10 09:46:27;;;;;;;2.67;1.42;;;;;;;15.78;68.51;96658.53;5032501;28;20775;-85
2022/11/10 09:48:58;;;;;;;4.43;2.03;;;;;;;15.99;68.75;96654.38;5032614;28;20206;-84
2022/11/10 09:51:29;;;;;;;5.07;1.67;;;;;;;15.91;66.67;96663.09;5032027;28;20218;-84
2022/11/10 09:53:57;;;;;;;2.63;1.42;;;;;;;16.04;67.55;96663.22;5030019;28;20217;-85
2022/11/10 09:56:30;;;;;;;3.63;1.73;;;;;;;15.86;66.98;96665.44;5032452;28;20673;-84
2022/11/10 09:58:57;;;;;;;2.63;1.70;;;;;;;15.82;67.37;96672.78;5033666;28;20660;-84
2022/11/10 10:01:34;;;;;;;2.40;1.50;;;;;;;16.02;67.19;96667.81;5031611;28;20325;-84
2022/11/10 10:04:12;;;;;;;5.10;1.75;;;;;;;16.13;65.57;96669.13;5030602;28;20220;-84
2022/11/10 10:06:48;;;;;;;1.58;1.40;;;;;;;16.13;65.88;96669.94;5032987;28;20321;-85
2022/11/10 10:09:26;;;;;;;2.55;1.30;;;;;;;16.22;66.33;96668.81;5035255;28;20194;-85
2022/11/10 10:12:01;;;;;;;2.33;1.40;;;;;;;16.17;66.14;96673.75;5036735;28;20437;-83
2022/11/10 10:14:58;;;;;;;3.78;1.40;;;;;;;16.03;65.07;96684.19;5036976;28;20201;-84
2022/11/10 10:17:30;;;;;;;3.30;1.30;;;;;;;16.02;67.50;96691.19;5036289;28;20282;-85
2022/11/10 10:20:04;;;;;;;3.80;1.30;;;;;;;15.87;67.30;96686.03;5035176;28;20209;-84
2022/11/10 10:22:56;;;;;;;3.63;1.30;;;;;;;15.68;66.37;96697.00;5036400;28;20206;-84
2022/11/10 10:25:25;;;;;;;3.17;1.30;;;;;;;15.46;66.67;96697.84;5034753;28;20194;-84
2022/11/10 10:27:59;;;;;;;1.63;1.20;;;;;;;15.41;66.74;96703.56;5035396;28;20712;-85
2022/11/10 10:30:26;;;;;;;5.22;1.50;;;;;;;15.59;67.09;96699.88;5035678;28;20612;-85
2022/11/10 10:33:00;;;;;;;2.45;1.38;;;;;;;15.69;66.40;96702.97;5036173;28;20210;-83
2022/11/10 10:35:28;;;;;;;3.63;1.58;;;;;;;15.77;66.74;96689.91;5030762;28;20191;-85
2022/11/10 10:37:57;;;;;;;3.92;1.42;;;;;;;15.83;65.64;96681.38;5014709;28;20623;-85
2022/11/10 10:40:24;;;;;;;2.28;1.20;;;;;;;15.80;64.57;96679.13;5014032;28;20250;-84
2022/11/10 10:42:51;;;;;;;12.85;10.32;;;;;;;15.65;64.28;96678.34;5014015;28;20213;-84
2022/11/10 10:45:23;;;;;;;24.77;21.92;;;;;;;15.64;65.75;96689.72;5013859;28;20231;-84
2022/11/10 10:47:51;;;;;;;10.18;6.80;;;;;;;15.64;66.44;96698.31;5013780;28;20698;-84
2022/11/10 10:50:41;;;;;;;5.68;2.63;;;;;;;15.78;66.02;96697.50;5013829;28;20226;-85
2022/11/10 10:53:13;;;;;;;4.10;1.95;;;;;;;15.89;67.01;96698.84;5013876;28;20211;-85
2022/11/10 10:55:46;;;;;;;3.42;1.70;;;;;;;15.86;64.93;96702.59;5012324;28;20218;-85
2022/11/10 10:58:22;;;;;;;3.17;1.75;;;;;;;16.01;65.90;96699.16;5012103;28;20202;-85
2022/11/10 11:00:51;;;;;;;6.30;2.20;;;;;;;16.28;66.15;96700.25;5012624;28;20233;-84
2022/11/10 11:03:29;;;;;;;3.08;1.50;;;;;;;16.42;64.57;96696.78;5029619;28;20197;-84
2022/11/10 11:06:07;;;;;;;4.22;1.60;;;;;;;16.53;64.42;96696.31;5016895;28;20810;-84
2022/11/10 11:08:34;;;;;;;2.85;1.33;;;;;;;16.39;62.65;96704.97;5013255;28;20184;-85
2022/11/10 11:11:09;;;;;;;3.20;1.50;;;;;;;16.27;61.25;96706.44;5013865;28;20223;-84
2022/11/10 11:13:35;;;;;;;3.15;1.30;;;;;;;16.28;62.49;96713.25;5013213;28;20190;-84
2022/11/10 11:16:04;;;;;;;3.45;1.30;;;;;;;16.20;60.97;96707.19;5013453;28;20234;-84
2022/11/10 11:18:32;;;;;;;6.93;6.22;;;;;;;16.19;59.57;96709.97;5014367;28;20207;-87
2022/11/10 11:21:06;;;;;;;7.88;5.32;;;;;;;16.14;61.28;96713.13;5013567;28;20227;-85
2022/11/10 11:23:57;;;;;;;2.63;1.73;;;;;;;15.96;61.26;96724.91;5014944;28;20629;-84
2022/11/10 11:26:37;;;;;;;1.88;1.35;;;;;;;15.91;60.89;96725.44;5013997;28;20306;-84
2022/11/10 11:29:16;;;;;;;4.68;1.80;;;;;;;16.07;61.08;96724.41;5014463;28;20705;-84
2022/11/10 11:31:55;;;;;;;1.88;1.48;;;;;;;16.28;61.34;96723.66;5014458;28;20266;-85
2022/11/10 11:34:29;;;;;;;3.63;1.20;;;;;;;16.39;61.11;96718.75;5014294;28;20194;-84
2022/11/10 11:37:03;;;;;;;2.33;1.15;;;;;;;16.63;59.29;96724.59;5029459;28;20198;-84
2022/11/10 11:39:45;;;;;;;2.58;1.23;;;;;;;16.80;57.91;96713.78;5032948;28;20837;-85
2022/11/10 11:42:27;;;;;;;1.70;1.10;;;;;;;16.77;55.93;96706.34;5034027;28;20190;-85
2022/11/10 11:45:06;;;;;;;1.42;1.00;;;;;;;16.46;56.52;96711.84;5033776;28;20696;-84
2022/11/10 11:47:46;;;;;;;1.75;1.15;;;;;;;16.27;57.62;96709.84;5032354;28;20229;-85
2022/11/10 11:50:27;;;;;;;3.13;1.20;;;;;;;16.11;56.81;96708.28;5033384;28;20229;-85